Airfield :
LOGIN :

Register | Disclaimer

   EN    FR    IT 

 










Legend :    VFR   Marginal VFR   IFR   Intensive IFR   Very Intensive IFR
Visi :
Ceiling :
>= 8 km
>= 3000ft
5 to 8 km
1000 to 3000 ft
1500m to 5 km
500 to 1000 ft
800 to 1500m
200 to 500 ft
< 800m
< 200 ft
Symbols :   Thunderstorms  Fog  Heavy snow  Heavy precipitations  Wind > 20 kt
SIGMETs :     Misc.  Thunderstorms  Icing  Turbulence  Mountain Waves  Volcanic Ashes







- Airport Elevation : 238 ft
- IATA code : FAB
- Download approach charts


EGLF - Farnborough

CURRENT METAR :
  • 201720Z 05008KT 6000 -SHRA FEW005 SCT014 BKN034 02/01 Q1005

EXPIRED METARs :
  • 201650Z 05009KT 7000 -SHRA FEW005 SCT014 BKN019 02/01 Q1005
  • 201620Z 05008KT 8000 -SHRA FEW005 BKN023 02/01 Q1005
  • 201550Z 04008KT 6000 -SHRA SCT005 SCT009 BKN015 02/02 Q1005
  • 201520Z 05006KT 010V070 9999 SCT005 BKN012 03/02 Q1005
  • 201450Z 09009KT 5000 -SHRA SCT005 BKN010 03/02 Q1005

TAF TAF EGLF
Valid from the 20 at 18:00 until the 20 at 22:00 UTC


201706Z 2018/2022 06012KT 9999 SCT030
PROB30
TEMPO 2020/2022 6000 RA BKN008
ATIS : +44 09063 800 400 (*282)
No reported NOTAMs for that airfield.
2 SIGMETs reported for the London FIR (EGTT) :
 
Severe mountain waves
EGTT SIGMET 03 VALID 201700/202100 EGRR
EGTT LONDON FIR SEV MTW FCST WI N5500 W00220 - N5322 W00134 - N5158 W00304 - N5149 W00510 - N5500 W00447 - N5500 W00220 FL030/120 MOV N 10KT NC=
Severe mountain waves
EGTT SIGMET 02 VALID 201300/201700 EGRR
EGTT LONDON FIR SEV MTW FCST WI N5322 W00134 - N5149 W00328 - N5130 W00504 - N5500 W00447 - N5500 W00220 - N5322 W00134 FL030/120 STNR NC=



MET'MAP, your aeronautical weather chart ! - Copyright ORBIFLY December 2007 - Disclaimer

ORBIFLY MET'MAP TEAM :

Programming & Development : Alexandra Zaïnal
Concept & Development : Baudouin d'Aumeries
Co-Development & Prog : Marc-Olivier Méhu
Technical & hardware support : Manuel Goepfert

Contact : metmap@orbifly.com




SOURCES & CREDITS :

   NOAA